Pittsburgh, PA (15239)

3:23 PM EDT on September 26, 2016 (GMT -0400)
Greendale Village | | Change Station

Elev 1122 ft 40.50 °N, 79.76 °W | Updated 14 seconds ago

Scattered Clouds
Scattered Clouds
71.1 °F
Feels Like 73 °F
N
0.4
Wind Variable Wind from SSE
Gusts 2.5 mph

Today
High -- | Low -- °F
--% Chance of Precip.
Yesterday
High -- | Low -- °F
Precip. -- in
Pressure 29.93 in
Visibility 8.0 miles
Clouds Few 3000 ft
Scattered Clouds 4500 ft
Heat Index 73 °F
Dew Point 63 °F
Humidity 76%
Rainfall 0.05 in
Snow Depth Not available.
7:10 AM 7:08 PM
Waning Crescent, 17% visible
METAR KAGC 261853Z AUTO 32008G18KT 8SM FEW030 SCT045 23/17 A2993 RMK AO2 RAB28E42 SLP133 P0000 T02280167 TSNO
Pressure 29.93 in
Visibility 8.0 miles
Clouds Few 3000 ft
Scattered Clouds 4500 ft
Heat Index 73 °F
Dew Point 63 °F
Humidity 76%
Rainfall 0.05 in
Snow Depth Not available.
7:10 AM 7:08 PM
Waning Crescent, 17% visible
METAR KAGC 261853Z AUTO 32008G18KT 8SM FEW030 SCT045 23/17 A2993 RMK AO2 RAB28E42 SLP133 P0000 T02280167 TSNO

10-Day Weather Forecast

Almanac

Astronomy

Sep. 26, 2016 Rise Set
Actual Time
Civil Twilight
Nautical Twilight
Astronomical Twilight
Moon
Length of Visible Light
Length of Day
Tomorrow will be .
, % of the Moon is Illuminated

Today's Extremes

State Highs State Lows

Community

WunderPhotos

Upload Photos

1,941,954 photos uploaded!

WunderBlog® & News

Nearby

Air Quality

  Air Quality AQ Index Pollutant
Not available.

Snow Depth

Station Depth Elevation

Earthquake Activity

City Distance Mag. Time & Date
Minimum magnitude displayed is 2.5.

Coastal Water Temperatures

Place Temperature

Stations

Nearby Weather Stations

Station Location Temp. Windchill Dew Point Humidity Wind Precip. Elev Updated Type
                   

Watches & Warnings

There are currently no watches in effect.